Time;durP1;ratioP1;P1;durP2;ratioP2;P2;SDS_P1;SDS_P2;PMS_P1;PMS_P2;Temp;Humidity;BMP_temperature;BMP_pressure;BME280_temperature;BME280_humidity;BME280_pressure;Samples;Min_cycle;Max_cycle;Signal;HPM_P1;HPM_P2
2022/08/24 00:01:13;;;;;;;5.20;4.70;;;20.50;99.90;;;;;;6088539;23;20527;-79
2022/08/24 00:03:41;;;;;;;5.90;4.77;;;20.50;99.90;;;;;;6087278;23;20468;-78
2022/08/24 00:06:10;;;;;;;5.40;5.00;;;20.40;99.90;;;;;;6083285;23;20442;-79
2022/08/24 00:08:38;;;;;;;4.37;4.00;;;20.40;99.90;;;;;;6081297;23;20468;-78
2022/08/24 00:11:06;;;;;;;4.70;4.30;;;20.40;99.90;;;;;;6090507;23;20451;-79
2022/08/24 00:13:35;;;;;;;4.80;4.30;;;20.30;99.90;;;;;;6083224;23;20527;-79
2022/08/24 00:16:02;;;;;;;4.47;4.10;;;20.30;99.90;;;;;;6085903;23;21036;-78
2022/08/24 00:18:29;;;;;;;5.67;5.17;;;20.30;99.90;;;;;;6085159;23;20941;-79
2022/08/24 00:20:56;;;;;;;5.47;4.83;;;20.20;99.90;;;;;;6086302;23;20508;-79
2022/08/24 00:23:24;;;;;;;5.20;4.80;;;20.10;99.90;;;;;;6088945;23;20449;-79
2022/08/24 00:25:51;;;;;;;5.57;5.07;;;20.20;99.90;;;;;;6090864;23;20982;-79
2022/08/24 00:28:18;;;;;;;5.93;4.70;;;20.00;99.90;;;;;;6087865;23;20529;-79
2022/08/24 00:30:47;;;;;;;6.10;5.60;;;20.00;99.90;;;;;;6076368;23;20427;-78
2022/08/24 00:33:14;;;;;;;6.63;5.50;;;20.00;99.90;;;;;;6089469;23;20500;-78
2022/08/24 00:35:41;;;;;;;6.30;5.70;;;19.90;99.90;;;;;;6086703;23;21117;-79
2022/08/24 00:38:08;;;;;;;6.30;5.40;;;19.90;99.90;;;;;;6083844;23;22306;-79
2022/08/24 00:40:38;;;;;;;5.30;4.60;;;19.80;99.90;;;;;;6089552;23;20438;-78
2022/08/24 00:43:07;;;;;;;5.90;5.40;;;19.80;99.90;;;;;;6085508;23;20473;-78
2022/08/24 00:45:40;;;;;;;6.53;5.77;;;19.70;99.90;;;;;;6090990;23;20469;-79
2022/08/24 00:48:15;;;;;;;7.67;6.90;;;19.70;99.90;;;;;;6086409;23;20528;-79
2022/08/24 00:50:47;;;;;;;8.13;7.43;;;19.70;99.90;;;;;;6089561;23;20538;-79
2022/08/24 00:53:25;;;;;;;7.77;7.07;;;19.60;99.90;;;;;;6087616;23;20442;-78
2022/08/24 00:55:57;;;;;;;7.30;6.63;;;19.60;99.90;;;;;;6089964;23;20437;-78
2022/08/24 00:58:33;;;;;;;8.40;7.00;;;19.60;99.90;;;;;;6087818;23;20993;-78
2022/08/24 01:01:03;;;;;;;6.80;6.20;;;19.60;99.90;;;;;;6087445;23;20573;-79
2022/08/24 01:03:33;;;;;;;7.40;6.80;;;19.50;99.90;;;;;;6089367;23;20516;-79
2022/08/24 01:06:00;;;;;;;7.27;6.57;;;19.50;99.90;;;;;;6088822;23;20493;-78
2022/08/24 01:08:27;;;;;;;6.40;5.80;;;19.40;99.90;;;;;;6088378;23;20571;-78
2022/08/24 01:10:58;;;;;;;7.53;5.90;;;19.40;99.90;;;;;;6089467;23;20945;-78
2022/08/24 01:13:26;;;;;;;6.40;5.90;;;19.30;99.90;;;;;;6087650;23;20442;-78
2022/08/24 01:15:59;;;;;;;5.83;5.30;;;19.30;99.90;;;;;;6088346;23;20481;-79
2022/08/24 01:21:23;;;;;;;6.03;5.53;;;19.20;99.90;;;;;;6090210;23;20442;-79
2022/08/24 01:23:54;;;;;;;7.33;5.40;;;19.10;99.90;;;;;;6085566;23;20438;-78
2022/08/24 01:26:25;;;;;;;4.77;4.47;;;19.00;99.90;;;;;;6076499;23;20446;-79
2022/08/24 01:28:57;;;;;;;6.60;4.97;;;18.90;99.90;;;;;;6089223;23;20509;-78
2022/08/24 01:31:25;;;;;;;5.80;5.27;;;18.80;99.90;;;;;;6088742;23;20509;-79
2022/08/24 01:33:54;;;;;;;5.07;4.53;;;18.70;99.90;;;;;;6087431;23;20954;-79
2022/08/24 01:36:29;;;;;;;5.30;4.80;;;18.70;99.90;;;;;;6089629;23;20457;-78
2022/08/24 01:39:02;;;;;;;4.90;4.50;;;18.70;99.90;;;;;;6088948;23;20477;-79
2022/08/24 01:41:29;;;;;;;5.90;5.30;;;18.60;99.90;;;;;;6078355;23;20466;-78
2022/08/24 01:43:57;;;;;;;5.30;4.90;;;18.50;99.90;;;;;;6081448;23;20445;-78
2022/08/24 01:46:25;;;;;;;4.93;4.53;;;18.50;99.90;;;;;;6079290;23;20435;-78
2022/08/24 01:48:52;;;;;;;5.20;4.70;;;18.40;99.90;;;;;;6090586;23;20454;-78
2022/08/24 01:51:19;;;;;;;5.37;4.97;;;18.30;99.90;;;;;;6088547;23;20458;-78
2022/08/24 01:53:47;;;;;;;5.97;5.30;;;18.20;99.90;;;;;;6087864;23;20929;-78
2022/08/24 01:56:15;;;;;;;5.83;5.23;;;18.10;99.90;;;;;;6087426;23;21087;-78
2022/08/24 01:58:44;;;;;;;4.80;4.50;;;18.10;99.90;;;;;;6089211;23;20504;-78
2022/08/24 02:01:12;;;;;;;5.43;4.40;;;18.00;99.90;;;;;;6087743;23;20443;-78
2022/08/24 02:03:39;;;;;;;5.47;4.97;;;17.90;99.90;;;;;;6085598;23;20455;-78
2022/08/24 02:06:07;;;;;;;5.37;4.97;;;17.90;99.90;;;;;;6088705;23;20957;-78
2022/08/24 02:08:34;;;;;;;5.77;5.27;;;17.80;99.90;;;;;;6087001;23;20454;-78
2022/08/24 02:11:02;;;;;;;5.30;4.90;;;17.80;99.90;;;;;;6087384;23;20434;-78
2022/08/24 02:13:31;;;;;;;5.53;5.10;;;17.70;99.90;;;;;;6089493;23;20513;-78
2022/08/24 02:15:59;;;;;;;5.43;5.03;;;17.80;99.90;;;;;;6087332;23;20473;-78
2022/08/24 02:18:27;;;;;;;5.50;5.20;;;17.60;99.90;;;;;;6088721;23;20552;-78
2022/08/24 02:20:54;;;;;;;5.20;4.80;;;17.60;99.90;;;;;;6086011;23;20474;-78
2022/08/24 02:23:21;;;;;;;5.43;5.03;;;17.40;99.90;;;;;;6089316;23;20500;-78
2022/08/24 02:25:48;;;;;;;6.47;5.33;;;17.40;99.90;;;;;;6086009;23;20450;-78
2022/08/24 02:28:16;;;;;;;6.37;5.93;;;17.20;99.90;;;;;;6088272;23;20493;-78
2022/08/24 02:30:44;;;;;;;6.00;5.40;;;17.20;99.90;;;;;;6087599;23;20942;-78
2022/08/24 02:33:11;;;;;;;5.60;5.10;;;17.10;99.90;;;;;;6086929;23;20840;-78
2022/08/24 02:35:39;;;;;;;9.67;6.30;;;17.00;99.90;;;;;;6088876;23;20579;-77
2022/08/24 02:38:06;;;;;;;6.10;5.50;;;17.00;99.90;;;;;;6088077;23;20957;-78
2022/08/24 02:40:33;;;;;;;5.90;5.40;;;16.90;99.90;;;;;;6086100;23;20450;-78
2022/08/24 02:43:01;;;;;;;6.40;5.73;;;16.90;99.90;;;;;;6088927;23;20456;-78
2022/08/24 02:45:28;;;;;;;5.70;5.30;;;16.80;99.90;;;;;;6073379;23;20466;-78
2022/08/24 02:47:57;;;;;;;6.07;5.47;;;16.80;99.90;;;;;;6087609;23;20438;-78
2022/08/24 02:50:26;;;;;;;6.10;5.70;;;16.80;99.90;;;;;;6082042;23;20447;-78
2022/08/24 02:52:54;;;;;;;5.60;5.20;;;16.80;99.90;;;;;;6085235;23;20441;-78
2022/08/24 02:55:21;;;;;;;5.60;5.20;;;16.80;99.90;;;;;;6085571;23;20441;-78
2022/08/24 02:57:49;;;;;;;5.67;5.27;;;16.80;99.90;;;;;;6087132;23;20450;-77
2022/08/24 03:00:20;;;;;;;5.30;4.90;;;16.70;99.90;;;;;;6087530;23;20438;-78
2022/08/24 03:02:47;;;;;;;5.20;4.80;;;16.70;99.90;;;;;;6087777;23;20445;-78
2022/08/24 03:05:16;;;;;;;5.63;5.23;;;16.70;99.90;;;;;;6089193;23;20457;-78
2022/08/24 03:07:43;;;;;;;5.67;5.27;;;16.70;99.90;;;;;;6088086;23;20430;-78
2022/08/24 03:10:11;;;;;;;5.97;5.47;;;16.70;99.90;;;;;;6088240;23;20500;-78
2022/08/24 03:12:39;;;;;;;6.10;5.50;;;16.70;99.90;;;;;;6085408;23;20446;-78
2022/08/24 03:15:10;;;;;;;5.77;5.30;;;16.70;99.90;;;;;;6088625;23;20997;-78
2022/08/24 03:17:38;;;;;;;5.57;5.17;;;16.70;99.90;;;;;;6086070;23;21751;-78
2022/08/24 03:20:10;;;;;;;6.13;5.63;;;16.60;99.90;;;;;;6087668;23;20478;-78
2022/08/24 03:22:39;;;;;;;5.80;5.40;;;16.60;99.90;;;;;;6085987;23;20517;-78
2022/08/24 03:25:07;;;;;;;5.50;5.10;;;16.60;99.90;;;;;;6087949;23;20453;-78
2022/08/24 03:27:35;;;;;;;5.60;5.30;;;16.50;99.90;;;;;;6087504;23;20450;-78
2022/08/24 03:30:02;;;;;;;5.93;5.53;;;16.50;99.90;;;;;;6088391;23;20442;-78
2022/08/24 03:32:29;;;;;;;6.13;5.73;;;16.60;99.90;;;;;;6087430;23;20453;-78
2022/08/24 03:34:56;;;;;;;6.40;5.90;;;16.60;99.90;;;;;;6090205;23;20453;-78
2022/08/24 03:37:23;;;;;;;6.60;5.93;;;16.60;99.90;;;;;;6087483;23;20511;-78
2022/08/24 03:39:51;;;;;;;5.97;5.47;;;16.50;99.90;;;;;;6088127;23;20510;-78
2022/08/24 03:42:18;;;;;;;6.43;5.77;;;16.50;99.90;;;;;;6085201;23;20442;-78
2022/08/24 03:44:45;;;;;;;6.30;5.90;;;16.50;99.90;;;;;;6088979;23;20832;-78
2022/08/24 03:47:13;;;;;;;6.43;5.93;;;16.40;99.90;;;;;;6088259;23;20533;-78
2022/08/24 03:49:40;;;;;;;8.00;6.40;;;16.40;99.90;;;;;;6088363;23;20466;-77
2022/08/24 03:52:07;;;;;;;6.80;6.30;;;16.30;99.90;;;;;;6086510;23;20438;-78
2022/08/24 03:54:34;;;;;;;7.20;6.00;;;16.30;99.90;;;;;;6089291;23;20470;-78
2022/08/24 03:57:03;;;;;;;7.27;6.77;;;16.30;99.90;;;;;;6087691;23;20454;-77
2022/08/24 03:59:30;;;;;;;6.50;6.10;;;16.30;99.90;;;;;;6086153;23;20505;-78
2022/08/24 04:01:58;;;;;;;7.70;7.20;;;16.30;99.90;;;;;;6083316;23;20474;-78
2022/08/24 04:04:25;;;;;;;7.17;6.67;;;16.30;99.90;;;;;;6087976;23;20504;-78
2022/08/24 04:06:52;;;;;;;8.67;8.07;;;16.20;99.90;;;;;;6086911;23;20446;-78
2022/08/24 04:09:19;;;;;;;8.90;8.10;;;16.20;99.90;;;;;;6087567;23;20477;-77
2022/08/24 04:11:47;;;;;;;8.63;7.90;;;16.10;99.90;;;;;;6086958;23;20466;-77
2022/08/24 04:14:18;;;;;;;9.97;9.17;;;16.10;99.90;;;;;;6079381;23;20446;-77
2022/08/24 04:16:45;;;;;;;8.93;8.23;;;16.10;99.90;;;;;;6088050;23;20944;-78
2022/08/24 04:19:13;;;;;;;9.83;9.00;;;16.00;99.90;;;;;;6087861;23;20615;-78
2022/08/24 04:21:43;;;;;;;9.77;9.07;;;16.00;99.90;;;;;;6083398;23;20438;-77
2022/08/24 04:24:10;;;;;;;10.13;9.23;;;16.00;99.90;;;;;;6088486;23;20473;-78
2022/08/24 04:26:40;;;;;;;9.63;8.70;;;16.00;99.90;;;;;;6088223;23;20438;-77
2022/08/24 04:29:09;;;;;;;10.23;9.53;;;16.00;99.90;;;;;;6087691;23;20458;-77
2022/08/24 04:31:38;;;;;;;9.60;8.80;;;16.00;99.90;;;;;;6088883;23;20449;-78
2022/08/24 04:34:06;;;;;;;10.73;9.87;;;16.00;99.90;;;;;;6088602;23;20446;-77
2022/08/24 04:36:33;;;;;;;10.77;9.87;;;16.00;99.90;;;;;;6086532;23;20842;-78
2022/08/24 04:39:01;;;;;;;10.97;9.80;;;16.00;99.90;;;;;;6085441;23;20470;-78
2022/08/24 04:41:28;;;;;;;9.93;9.10;;;16.00;99.90;;;;;;6087151;23;20438;-78
2022/08/24 04:43:55;;;;;;;10.00;9.20;;;16.00;99.90;;;;;;6074873;23;20512;-78
2022/08/24 04:46:22;;;;;;;10.30;9.50;;;16.00;99.90;;;;;;6090061;23;20791;-78
2022/08/24 04:48:51;;;;;;;10.80;10.00;;;16.00;99.90;;;;;;6087695;23;20512;-78
2022/08/24 04:51:19;;;;;;;11.10;10.20;;;16.00;99.90;;;;;;6090278;23;20840;-78
2022/08/24 04:53:48;;;;;;;9.97;9.17;;;15.90;99.90;;;;;;6088795;23;20465;-77
2022/08/24 04:56:18;;;;;;;10.50;9.60;;;15.90;99.90;;;;;;6089807;23;20457;-78
2022/08/24 04:58:46;;;;;;;10.27;9.47;;;15.90;99.90;;;;;;6088412;23;20473;-78
2022/08/24 05:01:16;;;;;;;10.63;9.73;;;16.00;99.90;;;;;;6080741;23;20797;-78
2022/08/24 05:03:44;;;;;;;9.67;8.97;;;16.00;99.90;;;;;;6084740;23;21016;-78
2022/08/24 05:06:14;;;;;;;9.43;8.73;;;16.00;99.90;;;;;;6088359;23;20536;-78
2022/08/24 05:08:42;;;;;;;10.07;9.27;;;16.00;99.90;;;;;;6089492;23;20466;-77
2022/08/24 05:11:09;;;;;;;9.90;9.00;;;16.10;99.90;;;;;;6086777;23;20442;-77
2022/08/24 05:13:37;;;;;;;9.47;8.77;;;16.10;99.90;;;;;;6083950;23;20937;-78
2022/08/24 05:16:07;;;;;;;10.20;9.40;;;16.20;99.90;;;;;;6080458;23;20442;-78
2022/08/24 05:18:34;;;;;;;10.37;9.50;;;16.30;99.90;;;;;;6078391;23;20581;-77
2022/08/24 05:21:01;;;;;;;9.83;9.13;;;16.30;99.90;;;;;;6091567;23;20516;-75
2022/08/24 05:23:30;;;;;;;9.93;9.03;;;16.30;99.90;;;;;;6087359;23;20848;-75
2022/08/24 05:26:04;;;;;;;9.47;8.67;;;16.40;99.90;;;;;;6090215;23;20462;-75
2022/08/24 05:28:34;;;;;;;9.80;9.00;;;16.40;99.90;;;;;;6086090;23;20492;-75
2022/08/24 05:31:07;;;;;;;9.83;9.07;;;16.50;99.90;;;;;;6085014;23;21433;-75
2022/08/24 05:33:35;;;;;;;9.33;8.63;;;16.80;99.90;;;;;;6081509;23;20434;-79
2022/08/24 05:36:03;;;;;;;9.40;8.40;;;16.60;99.90;;;;;;6081401;23;20446;-76
2022/08/24 05:38:32;;;;;;;9.73;9.03;;;16.70;99.90;;;;;;6087236;23;20470;-76
2022/08/24 05:41:04;;;;;;;10.57;9.70;;;16.80;99.90;;;;;;6088636;23;20470;-76
2022/08/24 05:43:31;;;;;;;9.83;9.13;;;16.90;99.90;;;;;;6087645;23;20924;-74
2022/08/24 05:45:58;;;;;;;9.20;8.50;;;17.00;99.90;;;;;;6089895;23;20539;-75
2022/08/24 05:48:25;;;;;;;10.53;9.63;;;17.10;99.90;;;;;;6088477;23;20468;-75
2022/08/24 05:50:53;;;;;;;8.80;8.20;;;17.20;99.90;;;;;;6088738;23;20446;-75
2022/08/24 05:53:20;;;;;;;9.43;8.63;;;17.30;99.90;;;;;;6104837;23;20557;-75
2022/08/24 05:55:49;;;;;;;9.97;9.17;;;17.40;99.90;;;;;;6084212;23;20434;-75
2022/08/24 05:58:16;;;;;;;10.20;9.17;;;17.50;99.90;;;;;;6086246;23;20481;-75
2022/08/24 06:00:44;;;;;;;9.00;8.30;;;17.30;99.90;;;;;;6081767;23;20550;-76
2022/08/24 06:03:14;;;;;;;9.03;8.33;;;17.70;99.90;;;;;;6088576;23;21061;-75
2022/08/24 06:05:41;;;;;;;9.07;8.33;;;17.80;99.90;;;;;;6093643;23;20443;-76
2022/08/24 06:08:09;;;;;;;9.10;8.40;;;17.80;99.90;;;;;;6088141;23;20482;-76
2022/08/24 06:10:40;;;;;;;9.13;8.30;;;17.90;99.90;;;;;;6088981;23;20450;-75
2022/08/24 06:13:10;;;;;;;9.00;8.20;;;18.00;99.90;;;;;;6089509;23;20431;-76
2022/08/24 06:15:37;;;;;;;9.33;8.57;;;18.00;99.90;;;;;;6082388;23;20510;-75
2022/08/24 06:18:06;;;;;;;9.00;8.10;;;18.00;99.90;;;;;;6085364;23;20460;-76
2022/08/24 06:20:37;;;;;;;7.73;7.17;;;18.00;99.90;;;;;;6083940;23;20481;-75
2022/08/24 06:23:04;;;;;;;8.40;7.70;;;18.10;99.90;;;;;;6086907;23;20447;-76
2022/08/24 06:28:17;;;;;;;7.73;7.03;;;18.20;99.90;;;;;;6086804;23;20459;-76
2022/08/24 06:30:44;;;;;;;8.07;7.33;;;18.30;99.90;;;;;;6080197;23;20585;-74
2022/08/24 15:18:01;;;;;;;2.03;1.93;;;32.90;55.40;;;;;;6114312;23;20572;-73
2022/08/24 15:20:44;;;;;;;2.60;2.40;;;33.10;56.00;;;;;;6082360;23;20457;-73
2022/08/24 15:23:17;;;;;;;2.90;2.27;;;33.50;55.40;;;;;;6095074;23;20449;-74
2022/08/24 15:25:49;;;;;;;2.13;2.03;;;33.80;55.20;;;;;;6093267;23;20453;-73
2022/08/24 15:28:24;;;;;;;2.17;2.07;;;33.90;54.50;;;;;;6093558;23;20442;-74
2022/08/24 15:30:58;;;;;;;2.13;2.03;;;34.20;54.90;;;;;;6093023;23;20442;-77
2022/08/24 15:33:29;;;;;;;2.07;1.97;;;35.20;54.30;;;;;;6068399;23;21309;-75
2022/08/24 15:36:10;;;;;;;2.20;2.10;;;36.20;52.20;;;;;;6076680;23;20469;-74
2022/08/24 15:38:45;;;;;;;2.33;2.13;;;36.40;51.90;;;;;;6088466;23;20442;-76
2022/08/24 15:41:16;;;;;;;2.37;2.17;;;35.70;52.60;;;;;;6094041;23;20438;-75
2022/08/24 15:43:47;;;;;;;2.13;2.03;;;35.50;53.20;;;;;;6093939;23;20439;-76
2022/08/24 15:46:21;;;;;;;2.33;2.13;;;35.40;53.40;;;;;;6087986;23;20461;-74
2022/08/24 15:48:49;;;;;;;2.10;1.90;;;35.50;52.70;;;;;;6082505;23;20448;-74
2022/08/24 15:51:33;;;;;;;2.30;2.20;;;35.80;53.10;;;;;;6089849;23;20795;-74
2022/08/24 15:54:16;;;;;;;2.30;1.97;;;35.00;54.00;;;;;;6083592;23;20430;-74
2022/08/24 15:56:46;;;;;;;2.70;2.50;;;35.00;54.60;;;;;;6080662;23;20473;-74
2022/08/24 15:59:24;;;;;;;2.40;2.03;;;34.70;54.90;;;;;;6097190;23;20457;-74
2022/08/24 16:02:27;;;;;;;2.57;2.37;;;34.40;54.00;;;;;;6095962;23;20453;-77
2022/08/24 16:05:10;;;;;;;2.13;2.03;;;34.00;54.50;;;;;;6071374;23;20446;-74
2022/08/24 16:08:06;;;;;;;2.00;1.90;;;33.90;54.60;;;;;;6090397;23;20442;-74
2022/08/24 16:10:37;;;;;;;2.20;2.00;;;33.60;54.50;;;;;;6098763;23;20445;-74
2022/08/24 16:13:08;;;;;;;2.27;2.07;;;33.20;55.70;;;;;;6090045;23;20940;-74
2022/08/24 16:15:44;;;;;;;2.17;1.97;;;32.80;56.50;;;;;;6097544;23;20454;-73
2022/08/24 16:18:11;;;;;;;2.00;1.90;;;32.70;57.30;;;;;;6086610;23;20505;-74
2022/08/24 16:20:40;;;;;;;2.10;2.00;;;32.20;57.70;;;;;;6082380;23;20858;-74
2022/08/24 16:23:10;;;;;;;2.00;1.83;;;32.20;57.70;;;;;;6070207;23;20924;-74
2022/08/24 16:25:39;;;;;;;2.67;2.17;;;32.00;58.40;;;;;;6074282;23;20465;-73
2022/08/24 16:28:10;;;;;;;2.50;2.00;;;31.80;58.70;;;;;;6093497;23;20442;-75
2022/08/24 16:30:48;;;;;;;2.23;2.03;;;31.40;59.50;;;;;;6082064;23;20442;-76
2022/08/24 16:33:37;;;;;;;1.80;1.70;;;30.90;60.80;;;;;;6090655;23;20433;-75
2022/08/24 16:36:08;;;;;;;2.00;1.80;;;30.60;62.00;;;;;;6069360;23;20463;-73
2022/08/24 16:38:36;;;;;;;2.10;2.00;;;30.60;62.60;;;;;;6089479;23;20445;-74
2022/08/24 16:41:06;;;;;;;2.27;2.07;;;30.60;63.40;;;;;;6068086;23;20439;-75
2022/08/24 16:43:34;;;;;;;1.97;1.87;;;30.50;64.00;;;;;;6082936;23;20439;-73
2022/08/24 16:46:04;;;;;;;2.03;1.90;;;30.20;64.70;;;;;;6086217;23;20508;-72
2022/08/24 16:48:31;;;;;;;3.50;2.30;;;30.00;65.60;;;;;;6081650;23;20836;-72
2022/08/24 16:50:59;;;;;;;2.70;2.00;;;29.70;66.50;;;;;;6083036;23;20485;-72
2022/08/24 16:53:27;;;;;;;3.00;2.10;;;29.50;67.20;;;;;;6091125;23;20957;-72
2022/08/24 16:55:55;;;;;;;2.63;2.17;;;29.20;67.70;;;;;;6090225;23;20957;-74
2022/08/24 16:58:26;;;;;;;2.60;2.00;;;29.00;68.60;;;;;;6086629;23;21954;-73
2022/08/24 17:00:53;;;;;;;2.10;2.00;;;28.90;68.90;;;;;;6064854;23;20954;-73
2022/08/24 17:03:20;;;;;;;2.10;2.00;;;28.70;69.80;;;;;;6082499;23;20521;-72
2022/08/24 17:05:48;;;;;;;2.50;2.00;;;28.60;69.70;;;;;;6071645;23;20553;-73
2022/08/24 17:08:15;;;;;;;3.23;2.20;;;28.40;70.10;;;;;;6084951;23;20492;-73
2022/08/24 17:10:43;;;;;;;2.10;2.00;;;28.30;70.30;;;;;;6069914;23;20462;-73
2022/08/24 17:13:10;;;;;;;1.90;1.80;;;28.30;70.70;;;;;;6087760;23;20482;-73
2022/08/24 17:15:37;;;;;;;2.10;1.90;;;28.30;70.90;;;;;;6086710;23;20991;-74
2022/08/24 17:18:08;;;;;;;2.00;1.90;;;28.30;71.10;;;;;;6092593;23;20562;-73
2022/08/24 17:20:35;;;;;;;3.23;2.07;;;28.30;71.40;;;;;;6072159;23;21010;-73
2022/08/24 17:23:03;;;;;;;1.93;1.83;;;28.30;71.60;;;;;;6076693;23;20439;-73
2022/08/24 17:25:30;;;;;;;1.90;1.80;;;28.30;72.10;;;;;;6071813;23;20485;-72
2022/08/24 17:27:59;;;;;;;2.33;2.13;;;28.30;72.80;;;;;;6076708;23;20454;-73
2022/08/24 17:30:27;;;;;;;2.23;2.10;;;28.20;73.30;;;;;;6073760;23;20447;-72
2022/08/24 17:32:54;;;;;;;2.60;2.40;;;28.10;73.00;;;;;;6079328;23;20542;-72
2022/08/24 17:35:22;;;;;;;2.30;2.10;;;28.00;73.10;;;;;;6087504;23;20492;-83
2022/08/24 17:37:52;;;;;;;3.17;1.77;;;27.90;73.30;;;;;;6081333;23;20820;-72
2022/08/24 17:40:22;;;;;;;1.73;1.63;;;27.90;73.70;;;;;;6083243;23;20461;-72
2022/08/24 17:42:49;;;;;;;1.83;1.73;;;27.80;74.30;;;;;;6091483;23;20938;-72
2022/08/24 17:45:19;;;;;;;2.10;2.00;;;27.80;74.60;;;;;;6072942;23;20482;-72
2022/08/24 17:47:46;;;;;;;1.97;1.77;;;27.70;75.20;;;;;;6091108;23;20461;-72
2022/08/24 17:50:15;;;;;;;2.30;2.10;;;27.60;75.80;;;;;;6091282;23;20441;-72
2022/08/24 17:52:42;;;;;;;1.87;1.77;;;27.50;76.30;;;;;;6090651;23;20985;-72
2022/08/24 17:55:12;;;;;;;2.17;2.07;;;27.50;76.50;;;;;;6082380;23;20858;-72
2022/08/24 17:57:40;;;;;;;2.23;1.90;;;27.40;76.80;;;;;;6062694;23;20459;-72
2022/08/24 18:00:10;;;;;;;3.30;2.33;;;27.30;77.20;;;;;;6072141;23;20463;-72
2022/08/24 18:02:40;;;;;;;2.20;2.00;;;27.20;77.30;;;;;;6076812;23;20446;-72
2022/08/24 18:05:09;;;;;;;2.53;2.33;;;27.20;77.10;;;;;;6083875;23;20463;-73
2022/08/24 18:07:36;;;;;;;2.30;2.20;;;27.10;77.30;;;;;;6063060;23;20550;-72
2022/08/24 18:10:06;;;;;;;2.53;2.33;;;27.00;77.70;;;;;;6070947;23;20460;-72
2022/08/24 18:12:33;;;;;;;2.00;1.90;;;26.90;77.90;;;;;;6083390;23;20435;-71
2022/08/24 18:15:00;;;;;;;1.83;1.73;;;26.80;78.10;;;;;;6067599;23;20539;-72
2022/08/24 18:17:33;;;;;;;2.77;2.17;;;26.80;78.50;;;;;;6090722;23;20504;-72
2022/08/24 18:20:03;;;;;;;2.03;1.83;;;26.70;79.10;;;;;;6091226;23;20431;-72
2022/08/24 18:22:30;;;;;;;2.47;2.27;;;26.60;79.50;;;;;;6091487;23;20437;-72
2022/08/24 18:24:57;;;;;;;2.40;2.20;;;26.60;79.90;;;;;;6079697;23;20455;-72
2022/08/24 18:27:28;;;;;;;2.60;2.07;;;26.50;80.40;;;;;;6081302;23;20821;-71
2022/08/24 18:29:57;;;;;;;2.40;2.20;;;26.50;81.00;;;;;;6082195;23;20786;-72
2022/08/24 18:32:24;;;;;;;2.30;2.20;;;26.40;81.50;;;;;;6087067;23;20470;-71
2022/08/24 18:34:51;;;;;;;2.30;2.20;;;26.30;82.20;;;;;;6087087;23;20478;-71
2022/08/24 18:37:19;;;;;;;2.70;2.50;;;26.30;82.70;;;;;;6083927;23;20497;-72
2022/08/24 18:39:47;;;;;;;2.33;2.13;;;26.20;83.20;;;;;;6091152;23;20422;-71
2022/08/24 18:42:14;;;;;;;3.20;2.50;;;26.10;83.70;;;;;;6072362;23;20427;-71
2022/08/24 18:44:41;;;;;;;2.30;2.10;;;26.10;84.30;;;;;;6068250;23;20969;-72
2022/08/24 18:47:09;;;;;;;2.20;2.00;;;26.10;84.50;;;;;;6082122;23;20475;-71
2022/08/24 18:49:36;;;;;;;2.33;2.13;;;26.00;84.90;;;;;;6064455;23;20510;-72
2022/08/24 18:52:06;;;;;;;2.80;2.30;;;25.90;84.90;;;;;;6073364;23;20439;-71
2022/08/24 18:54:40;;;;;;;2.20;2.10;;;25.90;85.40;;;;;;6070166;23;20802;-71
2022/08/24 18:57:07;;;;;;;4.87;4.47;;;25.90;85.80;;;;;;6075247;23;20506;-71
2022/08/24 18:59:35;;;;;;;3.17;2.97;;;25.80;85.90;;;;;;6079465;23;20484;-71
2022/08/24 19:04:53;;;;;;;2.83;2.63;;;25.70;86.40;;;;;;6085934;23;20809;-71
2022/08/24 19:07:20;;;;;;;2.30;2.10;;;25.70;86.70;;;;;;6073660;23;20470;-71
2022/08/24 19:09:49;;;;;;;2.50;2.30;;;25.70;87.20;;;;;;6089274;23;20438;-71
2022/08/24 19:12:17;;;;;;;2.57;2.37;;;25.60;87.40;;;;;;6080609;23;20489;-71
2022/08/24 19:14:46;;;;;;;2.17;2.07;;;25.60;87.50;;;;;;6077178;23;20467;-71
2022/08/24 19:17:13;;;;;;;2.47;2.27;;;25.60;87.90;;;;;;6085035;23;20466;-71
2022/08/24 19:19:40;;;;;;;2.60;2.40;;;25.50;88.10;;;;;;6089758;23;20444;-71
2022/08/24 19:22:09;;;;;;;2.20;2.07;;;25.70;88.50;;;;;;6079941;23;20434;-71
2022/08/24 19:24:37;;;;;;;2.50;2.30;;;25.50;88.50;;;;;;6086334;23;20960;-71
2022/08/24 19:27:06;;;;;;;5.10;2.30;;;25.40;88.60;;;;;;6083167;23;20477;-72
2022/08/24 19:29:34;;;;;;;2.17;1.97;;;25.40;89.40;;;;;;6072247;23;20451;-71
2022/08/24 19:32:01;;;;;;;2.50;2.30;;;25.30;90.10;;;;;;6088163;23;20427;-71
2022/08/24 19:34:30;;;;;;;2.70;2.50;;;25.20;90.50;;;;;;6087583;23;20461;-71
2022/08/24 19:36:57;;;;;;;3.00;2.70;;;25.10;90.80;;;;;;6087267;23;20494;-71
2022/08/24 19:39:24;;;;;;;2.60;2.40;;;25.00;90.90;;;;;;6068022;23;20835;-71
2022/08/24 19:41:52;;;;;;;2.87;2.60;;;25.00;91.00;;;;;;6072530;23;20452;-71
2022/08/24 19:47:07;;;;;;;2.50;2.30;;;24.90;91.30;;;;;;6082953;23;20525;-71
2022/08/24 19:49:35;;;;;;;2.83;2.37;;;24.90;91.60;;;;;;6073505;23;20755;-71
2022/08/24 19:52:02;;;;;;;2.50;2.30;;;24.80;91.60;;;;;;6070385;23;20529;-71
2022/08/24 19:54:33;;;;;;;2.80;2.60;;;24.80;91.70;;;;;;6079240;23;21053;-71
2022/08/24 19:57:00;;;;;;;2.97;2.70;;;24.80;91.90;;;;;;6072477;23;20435;-71
2022/08/24 19:59:37;;;;;;;2.40;2.27;;;24.80;92.10;;;;;;6072949;23;20471;-71
2022/08/24 20:02:04;;;;;;;2.50;2.33;;;24.80;92.30;;;;;;6075116;23;20452;-71
2022/08/24 20:04:31;;;;;;;3.23;2.53;;;24.70;92.40;;;;;;6079306;23;21029;-71
2022/08/24 20:06:59;;;;;;;2.67;2.47;;;24.70;92.70;;;;;;6090393;23;20441;-71
2022/08/24 20:09:27;;;;;;;2.80;2.60;;;24.70;92.90;;;;;;6082594;23;20444;-71
2022/08/24 20:11:54;;;;;;;2.67;2.47;;;24.60;93.10;;;;;;6077266;23;20464;-71
2022/08/24 20:14:21;;;;;;;3.63;2.63;;;24.50;93.40;;;;;;6076827;23;20515;-71
2022/08/24 20:16:50;;;;;;;2.80;2.60;;;24.50;93.70;;;;;;6072562;23;20442;-71
2022/08/24 20:19:18;;;;;;;2.40;2.20;;;24.40;93.90;;;;;;6083487;23;20486;-71
2022/08/24 20:21:45;;;;;;;2.90;2.70;;;24.40;94.30;;;;;;6081038;23;20972;-71
2022/08/24 20:24:12;;;;;;;2.70;2.47;;;24.30;94.70;;;;;;6084494;23;20465;-71
2022/08/24 20:26:42;;;;;;;2.87;2.20;;;24.20;95.10;;;;;;6064862;23;20497;-71
2022/08/24 20:29:11;;;;;;;3.00;2.80;;;24.20;95.40;;;;;;6088908;23;20527;-71
2022/08/24 20:31:38;;;;;;;2.93;2.60;;;24.10;95.80;;;;;;6078998;23;20438;-71
2022/08/24 20:34:07;;;;;;;3.23;2.60;;;24.00;96.20;;;;;;6084178;23;20522;-71
2022/08/24 20:36:36;;;;;;;3.07;2.70;;;23.90;96.60;;;;;;6078777;23;20444;-71
2022/08/24 20:39:06;;;;;;;2.60;2.40;;;23.80;97.10;;;;;;6081279;23;20464;-71
2022/08/24 20:41:34;;;;;;;3.00;2.73;;;23.70;97.50;;;;;;6084919;23;20439;-72
2022/08/24 20:44:01;;;;;;;2.63;2.43;;;23.70;97.90;;;;;;6088894;23;20980;-71
2022/08/24 20:46:29;;;;;;;3.30;3.00;;;23.60;98.30;;;;;;6091344;23;20461;-71
2022/08/24 20:48:57;;;;;;;3.30;3.00;;;23.60;98.70;;;;;;6076119;23;20443;-71
2022/08/24 20:51:26;;;;;;;3.00;2.70;;;23.50;99.00;;;;;;6081009;23;20443;-71
2022/08/24 20:53:53;;;;;;;3.10;2.90;;;23.50;99.40;;;;;;6091927;23;20439;-71
2022/08/24 20:56:24;;;;;;;4.57;3.00;;;23.40;99.60;;;;;;6093227;23;20426;-71
2022/08/24 20:58:51;;;;;;;3.10;2.90;;;23.40;99.90;;;;;;6089213;23;20544;-71
2022/08/24 21:01:18;;;;;;;3.10;2.77;;;23.30;99.90;;;;;;6078651;23;20434;-71
2022/08/24 21:03:45;;;;;;;2.97;2.77;;;23.30;99.90;;;;;;6089752;23;20480;-71
2022/08/24 21:06:16;;;;;;;2.70;2.50;;;23.50;99.90;;;;;;6089842;23;20513;-71
2022/08/24 21:08:47;;;;;;;3.20;3.00;;;23.30;99.90;;;;;;6090349;23;20435;-71
2022/08/24 21:11:15;;;;;;;2.97;2.77;;;23.20;99.90;;;;;;6083628;23;20434;-71
2022/08/24 21:13:42;;;;;;;3.70;3.00;;;23.20;99.90;;;;;;6078947;23;20855;-71
2022/08/24 21:16:11;;;;;;;2.97;2.73;;;23.20;99.90;;;;;;6073712;23;20534;-71
2022/08/24 21:18:38;;;;;;;3.70;3.33;;;23.10;99.90;;;;;;6088276;23;20458;-71
2022/08/24 21:21:06;;;;;;;3.40;2.93;;;23.10;99.90;;;;;;6089611;23;20439;-71
2022/08/24 21:23:34;;;;;;;3.37;3.07;;;23.00;99.90;;;;;;6082122;23;20475;-71
2022/08/24 21:26:05;;;;;;;3.33;3.10;;;23.00;99.90;;;;;;6085815;23;20445;-71
2022/08/24 21:28:33;;;;;;;3.07;2.87;;;23.00;99.90;;;;;;6090922;23;20458;-71
2022/08/24 21:31:00;;;;;;;3.10;2.80;;;22.90;99.90;;;;;;6073631;23;20467;-71
2022/08/24 21:36:13;;;;;;;4.00;2.73;;;22.80;99.90;;;;;;6082362;23;20470;-71
2022/08/24 21:38:40;;;;;;;3.10;2.90;;;22.80;99.90;;;;;;6079764;23;21140;-71
2022/08/24 21:41:09;;;;;;;3.00;2.80;;;22.70;99.90;;;;;;6072671;23;21508;-71
2022/08/24 21:43:36;;;;;;;3.33;3.10;;;22.70;99.90;;;;;;6079340;23;20672;-72
2022/08/24 21:46:04;;;;;;;3.00;2.80;;;22.60;99.90;;;;;;6073572;23;20435;-76
2022/08/24 21:48:31;;;;;;;3.30;3.00;;;22.50;99.90;;;;;;6091817;23;20430;-76
2022/08/24 21:50:58;;;;;;;3.07;2.87;;;22.50;99.90;;;;;;6078527;23;20500;-70
2022/08/24 21:53:26;;;;;;;3.57;3.27;;;22.50;99.90;;;;;;6087254;23;20454;-71